sensor_id;sensor_type;location;lat;lon;timestamp;pressure;altitude;pressure_sealevel;temperature;humidity
12763;BME280;6445;52.490;13.378;2022-09-03T00:01:43;51929.94;;;-146.10;45.33
12763;BME280;6445;52.490;13.378;2022-09-03T00:04:24;51941.94;;;-146.10;45.72
12763;BME280;6445;52.490;13.378;2022-09-03T00:07:07;51929.94;;;-146.10;45.53
12763;BME280;6445;52.490;13.378;2022-09-03T00:09:40;51915.94;;;-146.10;45.73
12763;BME280;6445;52.490;13.378;2022-09-03T00:12:14;51909.94;;;-146.10;45.80
12763;BME280;6445;52.490;13.378;2022-09-03T00:14:49;51941.94;;;-146.10;45.87
12763;BME280;6445;52.490;13.378;2022-09-03T00:17:19;51911.94;;;-146.10;45.73
12763;BME280;6445;52.490;13.378;2022-09-03T00:19:54;51915.94;;;-146.10;46.24
12763;BME280;6445;52.490;13.378;2022-09-03T00:22:27;51909.94;;;-146.10;46.34
12763;BME280;6445;52.490;13.378;2022-09-03T00:24:55;51925.94;;;-146.10;46.27
12763;BME280;6445;52.490;13.378;2022-09-03T00:27:26;51927.94;;;-146.10;46.41
12763;BME280;6445;52.490;13.378;2022-09-03T00:30:04;51927.94;;;-146.10;46.76
12763;BME280;6445;52.490;13.378;2022-09-03T00:32:40;51921.94;;;-146.10;46.61
12763;BME280;6445;52.490;13.378;2022-09-03T00:35:12;51945.97;;;-146.10;46.76
12763;BME280;6445;52.490;13.378;2022-09-03T00:37:40;51909.94;;;-146.10;46.60
12763;BME280;6445;52.490;13.378;2022-09-03T00:40:11;51913.94;;;-146.10;46.93
12763;BME280;6445;52.490;13.378;2022-09-03T00:42:45;51911.94;;;-146.10;46.87
12763;BME280;6445;52.490;13.378;2022-09-03T00:45:39;51891.94;;;-146.10;46.66
12763;BME280;6445;52.490;13.378;2022-09-03T00:48:26;51927.94;;;-146.10;46.96
12763;BME280;6445;52.490;13.378;2022-09-03T00:51:21;51935.94;;;-146.10;47.23
12763;BME280;6445;52.490;13.378;2022-09-03T00:54:42;51909.94;;;-146.10;47.15
12763;BME280;6445;52.490;13.378;2022-09-03T00:57:22;51929.94;;;-146.10;47.28
12763;BME280;6445;52.490;13.378;2022-09-03T01:00:04;51927.94;;;-146.10;46.96
12763;BME280;6445;52.490;13.378;2022-09-03T01:06:00;51921.94;;;-146.10;47.22
12763;BME280;6445;52.490;13.378;2022-09-03T01:08:51;51919.94;;;-146.10;47.45
12763;BME280;6445;52.490;13.378;2022-09-03T01:11:46;51913.94;;;-146.10;47.48
12763;BME280;6445;52.490;13.378;2022-09-03T01:14:31;51887.94;;;-146.10;47.33
12763;BME280;6445;52.490;13.378;2022-09-03T01:17:09;51927.94;;;-146.10;47.54
12763;BME280;6445;52.490;13.378;2022-09-03T01:25:43;51921.94;;;-146.10;47.82
12763;BME280;6445;52.490;13.378;2022-09-03T01:28:41;51907.94;;;-146.10;48.04
12763;BME280;6445;52.490;13.378;2022-09-03T01:31:27;51919.94;;;-146.10;47.80
12763;BME280;6445;52.490;13.378;2022-09-03T01:34:14;51907.94;;;-146.10;47.77
12763;BME280;6445;52.490;13.378;2022-09-03T01:36:52;51893.94;;;-146.10;47.63
12763;BME280;6445;52.490;13.378;2022-09-03T01:39:36;51899.94;;;-146.10;47.76
12763;BME280;6445;52.490;13.378;2022-09-03T01:53:02;51889.94;;;-146.10;48.68
12763;BME280;6445;52.490;13.378;2022-09-03T01:58:25;51903.94;;;-146.10;48.33
12763;BME280;6445;52.490;13.378;2022-09-03T02:00:58;51897.94;;;-146.10;48.31
12763;BME280;6445;52.490;13.378;2022-09-03T02:03:32;51887.94;;;-146.10;48.40
12763;BME280;6445;52.490;13.378;2022-09-03T02:05:59;51893.94;;;-146.10;48.18
12763;BME280;6445;52.490;13.378;2022-09-03T02:08:24;51877.94;;;-146.10;48.52
12763;BME280;6445;52.490;13.378;2022-09-03T02:10:52;51899.94;;;-146.10;48.37
12763;BME280;6445;52.490;13.378;2022-09-03T02:13:49;51877.94;;;-146.10;48.61
12763;BME280;6445;52.490;13.378;2022-09-03T02:16:25;51895.94;;;-146.10;48.91
12763;BME280;6445;52.490;13.378;2022-09-03T02:18:57;51897.94;;;-146.10;49.25
12763;BME280;6445;52.490;13.378;2022-09-03T02:21:26;51895.94;;;-146.10;49.09
12763;BME280;6445;52.490;13.378;2022-09-03T02:23:54;51885.94;;;-146.10;49.52
12763;BME280;6445;52.490;13.378;2022-09-03T02:26:22;51883.94;;;-146.10;49.65
12763;BME280;6445;52.490;13.378;2022-09-03T02:28:49;51905.94;;;-146.10;49.55
12763;BME280;6445;52.490;13.378;2022-09-03T02:31:14;51891.94;;;-146.10;49.52
12763;BME280;6445;52.490;13.378;2022-09-03T02:33:42;51873.94;;;-146.10;49.59
12763;BME280;6445;52.490;13.378;2022-09-03T02:36:10;51877.94;;;-146.10;49.21
12763;BME280;6445;52.490;13.378;2022-09-03T02:38:36;51881.94;;;-146.10;49.67
12763;BME280;6445;52.490;13.378;2022-09-03T02:41:02;51881.94;;;-146.10;49.94
12763;BME280;6445;52.490;13.378;2022-09-03T02:43:33;51899.94;;;-146.10;50.33
12763;BME280;6445;52.490;13.378;2022-09-03T02:46:03;51877.94;;;-146.10;50.40
12763;BME280;6445;52.490;13.378;2022-09-03T02:48:29;51891.94;;;-146.10;50.51
12763;BME280;6445;52.490;13.378;2022-09-03T02:50:54;51897.94;;;-146.10;50.00
12763;BME280;6445;52.490;13.378;2022-09-03T02:53:20;51897.94;;;-146.10;50.24
12763;BME280;6445;52.490;13.378;2022-09-03T02:55:45;51887.94;;;-146.10;50.08
12763;BME280;6445;52.490;13.378;2022-09-03T02:58:11;51867.94;;;-146.10;50.18
12763;BME280;6445;52.490;13.378;2022-09-03T03:00:36;51883.94;;;-146.10;50.11
12763;BME280;6445;52.490;13.378;2022-09-03T03:03:05;51903.94;;;-146.10;50.35
12763;BME280;6445;52.490;13.378;2022-09-03T03:05:41;51873.94;;;-146.10;50.26
12763;BME280;6445;52.490;13.378;2022-09-03T03:08:08;51883.94;;;-146.10;50.81
12763;BME280;6445;52.490;13.378;2022-09-03T03:10:34;51865.94;;;-146.10;51.07
12763;BME280;6445;52.490;13.378;2022-09-03T03:12:59;51893.94;;;-146.10;51.02
12763;BME280;6445;52.490;13.378;2022-09-03T03:15:25;51875.94;;;-146.10;51.44
12763;BME280;6445;52.490;13.378;2022-09-03T03:17:50;51877.94;;;-146.10;50.85
12763;BME280;6445;52.490;13.378;2022-09-03T03:20:15;51869.94;;;-146.10;51.17
12763;BME280;6445;52.490;13.378;2022-09-03T03:22:40;51889.94;;;-146.10;51.67
12763;BME280;6445;52.490;13.378;2022-09-03T03:25:06;51843.94;;;-146.10;52.07
12763;BME280;6445;52.490;13.378;2022-09-03T03:27:31;51871.94;;;-146.10;51.06
12763;BME280;6445;52.490;13.378;2022-09-03T03:29:56;51889.94;;;-146.10;51.82
12763;BME280;6445;52.490;13.378;2022-09-03T03:32:22;51849.94;;;-146.10;51.65
12763;BME280;6445;52.490;13.378;2022-09-03T03:34:47;51873.94;;;-146.10;51.36
12763;BME280;6445;52.490;13.378;2022-09-03T03:37:13;51871.94;;;-146.10;51.30
12763;BME280;6445;52.490;13.378;2022-09-03T03:39:38;51863.94;;;-146.10;51.24
12763;BME280;6445;52.490;13.378;2022-09-03T03:42:04;51875.94;;;-146.10;51.19
12763;BME280;6445;52.490;13.378;2022-09-03T03:44:29;51885.94;;;-146.10;51.41
12763;BME280;6445;52.490;13.378;2022-09-03T03:46:54;51853.94;;;-146.10;51.05
12763;BME280;6445;52.490;13.378;2022-09-03T03:49:20;51871.94;;;-146.10;51.06
12763;BME280;6445;52.490;13.378;2022-09-03T03:51:45;51855.94;;;-146.10;51.32
12763;BME280;6445;52.490;13.378;2022-09-03T03:54:10;51875.94;;;-146.10;51.28
12763;BME280;6445;52.490;13.378;2022-09-03T03:56:35;51893.94;;;-146.10;51.93
12763;BME280;6445;52.490;13.378;2022-09-03T03:59:01;51873.94;;;-146.10;51.72
12763;BME280;6445;52.490;13.378;2022-09-03T04:01:27;51873.94;;;-146.10;51.48
12763;BME280;6445;52.490;13.378;2022-09-03T04:03:57;51891.94;;;-146.10;51.61
12763;BME280;6445;52.490;13.378;2022-09-03T04:06:23;51883.94;;;-146.10;51.75
12763;BME280;6445;52.490;13.378;2022-09-03T04:08:48;51867.94;;;-146.10;51.15
12763;BME280;6445;52.490;13.378;2022-09-03T04:11:17;51893.94;;;-146.10;50.93
12763;BME280;6445;52.490;13.378;2022-09-03T04:13:44;51869.94;;;-146.10;50.94
12763;BME280;6445;52.490;13.378;2022-09-03T04:16:21;51879.94;;;-146.10;51.39
12763;BME280;6445;52.490;13.378;2022-09-03T04:18:47;51893.94;;;-146.10;51.33
12763;BME280;6445;52.490;13.378;2022-09-03T04:21:15;51865.94;;;-146.10;51.23
12763;BME280;6445;52.490;13.378;2022-09-03T04:23:44;51881.94;;;-146.10;51.57
12763;BME280;6445;52.490;13.378;2022-09-03T04:26:12;51881.94;;;-146.10;51.50
12763;BME280;6445;52.490;13.378;2022-09-03T04:28:38;51887.94;;;-146.10;51.43
12763;BME280;6445;52.490;13.378;2022-09-03T04:31:06;51877.94;;;-146.10;51.10
12763;BME280;6445;52.490;13.378;2022-09-03T04:33:32;51879.94;;;-146.10;51.50
12763;BME280;6445;52.490;13.378;2022-09-03T04:36:25;51895.94;;;-146.10;51.78
12763;BME280;6445;52.490;13.378;2022-09-03T04:38:53;51877.94;;;-146.10;51.92
12763;BME280;6445;52.490;13.378;2022-09-03T04:41:21;51881.94;;;-146.10;51.96
12763;BME280;6445;52.490;13.378;2022-09-03T04:43:49;51887.94;;;-146.10;51.93
12763;BME280;6445;52.490;13.378;2022-09-03T04:46:15;51871.94;;;-146.10;51.75
12763;BME280;6445;52.490;13.378;2022-09-03T04:48:40;51877.94;;;-146.10;51.59
12763;BME280;6445;52.490;13.378;2022-09-03T04:51:11;51879.94;;;-146.10;51.67
12763;BME280;6445;52.490;13.378;2022-09-03T04:53:40;51871.94;;;-146.10;51.81
12763;BME280;6445;52.490;13.378;2022-09-03T04:56:17;51873.94;;;-146.10;51.48
12763;BME280;6445;52.490;13.378;2022-09-03T04:58:43;51883.94;;;-146.10;51.29
12763;BME280;6445;52.490;13.378;2022-09-03T05:01:14;51909.94;;;-146.10;50.60
12763;BME280;6445;52.490;13.378;2022-09-03T05:03:40;51917.94;;;-146.10;50.46
12763;BME280;6445;52.490;13.378;2022-09-03T05:06:05;51943.97;;;-146.10;49.72
12763;BME280;6445;52.490;13.378;2022-09-03T05:08:31;51919.94;;;-146.10;48.37
12763;BME280;6445;52.490;13.378;2022-09-03T05:11:03;51955.97;;;-146.10;46.43
12763;BME280;6445;52.490;13.378;2022-09-03T05:13:28;51979.97;;;-146.10;45.96
12763;BME280;6445;52.490;13.378;2022-09-03T05:16:01;51993.97;;;-146.10;45.43
12763;BME280;6445;52.490;13.378;2022-09-03T05:18:27;51973.97;;;-146.10;45.04
12763;BME280;6445;52.490;13.378;2022-09-03T05:21:04;52015.97;;;-146.10;44.29
12763;BME280;6445;52.490;13.378;2022-09-03T05:23:31;52013.97;;;-146.10;42.90
12763;BME280;6445;52.490;13.378;2022-09-03T05:25:58;52015.97;;;-146.10;43.11
12763;BME280;6445;52.490;13.378;2022-09-03T05:28:27;52049.97;;;-146.10;42.38
12763;BME280;6445;52.490;13.378;2022-09-03T05:31:08;52035.97;;;-146.10;42.48
12763;BME280;6445;52.490;13.378;2022-09-03T05:33:34;52047.97;;;-146.10;41.65
12763;BME280;6445;52.490;13.378;2022-09-03T05:36:01;52057.97;;;-146.10;41.08
12763;BME280;6445;52.490;13.378;2022-09-03T05:38:27;52120.00;;;-146.10;39.29
12763;BME280;6445;52.490;13.378;2022-09-03T05:40:52;52074.00;;;-146.10;40.40
12763;BME280;6445;52.490;13.378;2022-09-03T05:43:18;52102.00;;;-146.10;39.93
12763;BME280;6445;52.490;13.378;2022-09-03T05:45:44;52124.00;;;-146.10;38.91
12763;BME280;6445;52.490;13.378;2022-09-03T05:48:09;52120.00;;;-146.10;37.99
12763;BME280;6445;52.490;13.378;2022-09-03T05:50:34;52128.00;;;-146.10;38.46
12763;BME280;6445;52.490;13.378;2022-09-03T05:52:59;52098.00;;;-146.10;39.61
12763;BME280;6445;52.490;13.378;2022-09-03T05:55:25;52009.97;;;-146.10;42.43
12763;BME280;6445;52.490;13.378;2022-09-03T05:57:52;52021.97;;;-146.10;44.28
12763;BME280;6445;52.490;13.378;2022-09-03T06:00:17;51967.97;;;-146.10;45.27
12763;BME280;6445;52.490;13.378;2022-09-03T06:02:49;51983.97;;;-146.10;46.77
12763;BME280;6445;52.490;13.378;2022-09-03T06:05:14;51979.97;;;-146.10;46.98
12763;BME280;6445;52.490;13.378;2022-09-03T06:07:41;51973.97;;;-146.10;47.21
12763;BME280;6445;52.490;13.378;2022-09-03T06:10:06;52021.97;;;-146.10;45.22
12763;BME280;6445;52.490;13.378;2022-09-03T06:12:31;52009.97;;;-146.10;43.96
12763;BME280;6445;52.490;13.378;2022-09-03T06:14:57;52023.97;;;-146.10;44.12
12763;BME280;6445;52.490;13.378;2022-09-03T06:17:22;51999.97;;;-146.10;45.48
12763;BME280;6445;52.490;13.378;2022-09-03T06:19:47;52009.97;;;-146.10;45.08
12763;BME280;6445;52.490;13.378;2022-09-03T06:22:13;51991.97;;;-146.10;46.21
12763;BME280;6445;52.490;13.378;2022-09-03T06:24:38;52009.97;;;-146.10;45.79
12763;BME280;6445;52.490;13.378;2022-09-03T06:27:04;52005.97;;;-146.10;44.70
12763;BME280;6445;52.490;13.378;2022-09-03T06:29:29;51983.97;;;-146.10;46.28
12763;BME280;6445;52.490;13.378;2022-09-03T06:31:54;51977.97;;;-146.10;47.65
12763;BME280;6445;52.490;13.378;2022-09-03T06:34:20;51945.97;;;-146.10;48.19
12763;BME280;6445;52.490;13.378;2022-09-03T06:36:46;51971.97;;;-146.10;48.94
12763;BME280;6445;52.490;13.378;2022-09-03T06:39:12;51959.97;;;-146.10;49.17
12763;BME280;6445;52.490;13.378;2022-09-03T06:41:37;51961.97;;;-146.10;49.20
12763;BME280;6445;52.490;13.378;2022-09-03T06:44:05;51975.97;;;-146.10;48.53
12763;BME280;6445;52.490;13.378;2022-09-03T06:46:35;51963.97;;;-146.10;48.22
12763;BME280;6445;52.490;13.378;2022-09-03T06:49:03;51945.97;;;-146.10;48.52
12763;BME280;6445;52.490;13.378;2022-09-03T06:51:30;51975.97;;;-146.10;48.22
12763;BME280;6445;52.490;13.378;2022-09-03T06:54:03;51977.97;;;-146.10;48.32
12763;BME280;6445;52.490;13.378;2022-09-03T06:56:30;51965.97;;;-146.10;49.07
12763;BME280;6445;52.490;13.378;2022-09-03T06:58:59;51965.97;;;-146.10;48.77
12763;BME280;6445;52.490;13.378;2022-09-03T07:01:27;51957.97;;;-146.10;48.74
12763;BME280;6445;52.490;13.378;2022-09-03T07:03:59;51957.97;;;-146.10;48.54
12763;BME280;6445;52.490;13.378;2022-09-03T07:06:26;51979.97;;;-146.10;48.63
12763;BME280;6445;52.490;13.378;2022-09-03T07:08:52;51983.97;;;-146.10;47.98
12763;BME280;6445;52.490;13.378;2022-09-03T07:11:20;51979.97;;;-146.10;47.63
12763;BME280;6445;52.490;13.378;2022-09-03T07:13:49;52001.97;;;-146.10;46.82
12763;BME280;6445;52.490;13.378;2022-09-03T07:16:21;52015.97;;;-146.10;45.34
12763;BME280;6445;52.490;13.378;2022-09-03T07:18:47;52011.97;;;-146.10;45.52
12763;BME280;6445;52.490;13.378;2022-09-03T07:21:20;52017.97;;;-146.10;45.78
12763;BME280;6445;52.490;13.378;2022-09-03T07:23:47;51989.97;;;-146.10;46.01
12763;BME280;6445;52.490;13.378;2022-09-03T07:26:15;51985.97;;;-146.10;46.30
12763;BME280;6445;52.490;13.378;2022-09-03T07:28:42;51993.97;;;-146.10;46.17
12763;BME280;6445;52.490;13.378;2022-09-03T07:31:10;52019.97;;;-146.10;45.86
12763;BME280;6445;52.490;13.378;2022-09-03T07:33:37;52013.97;;;-146.10;45.46
12763;BME280;6445;52.490;13.378;2022-09-03T07:36:04;52039.97;;;-146.10;45.27
12763;BME280;6445;52.490;13.378;2022-09-03T07:38:31;52031.97;;;-146.10;44.89
12763;BME280;6445;52.490;13.378;2022-09-03T07:41:02;52076.00;;;-146.10;44.42
12763;BME280;6445;52.490;13.378;2022-09-03T07:43:32;52059.97;;;-146.10;44.72
12763;BME280;6445;52.490;13.378;2022-09-03T07:45:58;52021.97;;;-146.10;45.14
12763;BME280;6445;52.490;13.378;2022-09-03T07:48:23;52027.97;;;-146.10;44.45
12763;BME280;6445;52.490;13.378;2022-09-03T07:50:48;52021.97;;;-146.10;45.18
12763;BME280;6445;52.490;13.378;2022-09-03T07:53:17;52055.97;;;-146.10;44.89
12763;BME280;6445;52.490;13.378;2022-09-03T07:55:45;52061.97;;;-146.10;44.38
12763;BME280;6445;52.490;13.378;2022-09-03T07:58:10;52029.97;;;-146.10;44.50
12763;BME280;6445;52.490;13.378;2022-09-03T08:00:37;52031.97;;;-146.10;44.31
12763;BME280;6445;52.490;13.378;2022-09-03T08:03:03;52047.97;;;-146.10;44.60
12763;BME280;6445;52.490;13.378;2022-09-03T08:05:32;52059.97;;;-146.10;44.33
12763;BME280;6445;52.490;13.378;2022-09-03T08:08:04;52078.00;;;-146.10;43.62
12763;BME280;6445;52.490;13.378;2022-09-03T08:10:30;52074.00;;;-146.10;43.15
12763;BME280;6445;52.490;13.378;2022-09-03T08:12:58;52076.00;;;-146.10;42.18
12763;BME280;6445;52.490;13.378;2022-09-03T08:15:24;52124.00;;;-146.10;41.07
12763;BME280;6445;52.490;13.378;2022-09-03T08:17:50;52122.00;;;-146.10;40.61
12763;BME280;6445;52.490;13.378;2022-09-03T08:20:16;52122.00;;;-146.10;40.47
12763;BME280;6445;52.490;13.378;2022-09-03T08:22:42;52220.03;;;-146.10;38.61
12763;BME280;6445;52.490;13.378;2022-09-03T08:25:08;52252.03;;;-146.10;35.61
12763;BME280;6445;52.490;13.378;2022-09-03T08:27:33;52312.06;;;-146.10;34.72
12763;BME280;6445;52.490;13.378;2022-09-03T08:29:59;52378.06;;;-146.10;34.04
12763;BME280;6445;52.490;13.378;2022-09-03T08:32:24;52384.09;;;-146.10;33.87
12763;BME280;6445;52.490;13.378;2022-09-03T08:34:49;52606.16;;;-146.10;30.51
12763;BME280;6445;52.490;13.378;2022-09-03T08:37:16;52766.22;;;-146.10;27.99
12763;BME280;6445;52.490;13.378;2022-09-03T08:39:42;52872.28;;;-146.10;27.04
12763;BME280;6445;52.490;13.378;2022-09-03T08:42:22;52898.28;;;-146.10;26.98
12763;BME280;6445;52.490;13.378;2022-09-03T08:44:54;52966.31;;;-146.10;26.19
12763;BME280;6445;52.490;13.378;2022-09-03T08:47:24;53070.38;;;-146.10;25.18
12763;BME280;6445;52.490;13.378;2022-09-03T08:52:50;52982.34;;;-146.10;25.62
12763;BME280;6445;52.490;13.378;2022-09-03T08:55:28;53058.38;;;-146.10;25.61
12763;BME280;6445;52.490;13.378;2022-09-03T08:58:06;53198.44;;;-146.10;24.27
12763;BME280;6445;52.490;13.378;2022-09-03T09:00:45;53168.44;;;-146.10;24.17
12763;BME280;6445;52.490;13.378;2022-09-03T09:03:32;52916.31;;;-146.10;26.25
12763;BME280;6445;52.490;13.378;2022-09-03T09:06:28;53098.38;;;-146.10;25.76
12763;BME280;6445;52.490;13.378;2022-09-03T09:09:19;53262.47;;;-146.10;24.32
12763;BME280;6445;52.490;13.378;2022-09-03T09:12:00;53146.41;;;-146.10;24.71
12763;BME280;6445;52.490;13.378;2022-09-03T09:14:48;53156.41;;;-146.10;24.43
12763;BME280;6445;52.490;13.378;2022-09-03T09:17:36;53088.38;;;-146.10;24.89
12763;BME280;6445;52.490;13.378;2022-09-03T09:20:23;52984.34;;;-146.10;25.29
12763;BME280;6445;52.490;13.378;2022-09-03T09:22:56;52888.28;;;-146.10;26.15
12763;BME280;6445;52.490;13.378;2022-09-03T09:25:24;52858.28;;;-146.10;26.42
12763;BME280;6445;52.490;13.378;2022-09-03T09:28:06;52826.25;;;-146.10;26.48
12763;BME280;6445;52.490;13.378;2022-09-03T09:30:35;52840.25;;;-146.10;26.75
12763;BME280;6445;52.490;13.378;2022-09-03T09:33:01;52838.25;;;-146.10;26.55
12763;BME280;6445;52.490;13.378;2022-09-03T09:35:26;52748.22;;;-146.10;27.31
12763;BME280;6445;52.490;13.378;2022-09-03T09:37:56;52694.19;;;-146.10;27.39
12763;BME280;6445;52.490;13.378;2022-09-03T09:40:27;52668.19;;;-146.10;28.40
12763;BME280;6445;52.490;13.378;2022-09-03T09:43:16;52584.16;;;-146.10;28.13
12763;BME280;6445;52.490;13.378;2022-09-03T09:45:50;52538.13;;;-146.10;28.74
12763;BME280;6445;52.490;13.378;2022-09-03T09:48:22;52572.16;;;-146.10;28.98
12763;BME280;6445;52.490;13.378;2022-09-03T09:51:08;52604.16;;;-146.10;28.83
12763;BME280;6445;52.490;13.378;2022-09-03T09:53:34;52562.16;;;-146.10;28.51
12763;BME280;6445;52.490;13.378;2022-09-03T09:56:00;52496.13;;;-146.10;29.18
12763;BME280;6445;52.490;13.378;2022-09-03T09:58:29;52524.13;;;-146.10;29.10
12763;BME280;6445;52.490;13.378;2022-09-03T10:01:12;52530.13;;;-146.10;28.70
12763;BME280;6445;52.490;13.378;2022-09-03T10:03:56;52560.16;;;-146.10;28.71
12763;BME280;6445;52.490;13.378;2022-09-03T10:06:26;52620.16;;;-146.10;28.27
12763;BME280;6445;52.490;13.378;2022-09-03T10:09:14;52562.16;;;-146.10;28.68
12763;BME280;6445;52.490;13.378;2022-09-03T10:11:44;52484.13;;;-146.10;28.65
12763;BME280;6445;52.490;13.378;2022-09-03T10:14:38;52472.13;;;-146.10;28.42
12763;BME280;6445;52.490;13.378;2022-09-03T10:17:23;52470.13;;;-146.10;28.27
12763;BME280;6445;52.490;13.378;2022-09-03T10:20:13;52452.09;;;-146.10;27.96
12763;BME280;6445;52.490;13.378;2022-09-03T10:26:01;52452.09;;;-146.10;28.26
12763;BME280;6445;52.490;13.378;2022-09-03T10:28:36;52366.06;;;-146.10;28.94
12763;BME280;6445;52.490;13.378;2022-09-03T10:33:45;52286.03;;;-146.10;30.15
12763;BME280;6445;52.490;13.378;2022-09-03T10:36:24;52314.06;;;-146.10;30.61
12763;BME280;6445;52.490;13.378;2022-09-03T10:39:04;52298.06;;;-146.10;31.03
12763;BME280;6445;52.490;13.378;2022-09-03T10:41:43;52328.06;;;-146.10;30.44
12763;BME280;6445;52.490;13.378;2022-09-03T10:44:33;52350.06;;;-146.10;30.41
12763;BME280;6445;52.490;13.378;2022-09-03T10:49:59;52308.06;;;-146.10;30.65
12763;BME280;6445;52.490;13.378;2022-09-03T11:00:32;52266.03;;;-146.10;31.14
12763;BME280;6445;52.490;13.378;2022-09-03T11:03:13;52256.03;;;-146.10;31.06
12763;BME280;6445;52.490;13.378;2022-09-03T11:05:55;52270.03;;;-146.10;31.72
12763;BME280;6445;52.490;13.378;2022-09-03T11:08:40;52282.03;;;-146.10;30.31
12763;BME280;6445;52.490;13.378;2022-09-03T11:11:41;52290.06;;;-146.10;29.94
12763;BME280;6445;52.490;13.378;2022-09-03T11:14:09;52290.06;;;-146.10;29.67
12763;BME280;6445;52.490;13.378;2022-09-03T11:19:12;52356.06;;;-146.10;29.48
12763;BME280;6445;52.490;13.378;2022-09-03T11:21:41;52308.06;;;-146.10;29.84
12763;BME280;6445;52.490;13.378;2022-09-03T11:24:15;52294.06;;;-146.10;30.44
12763;BME280;6445;52.490;13.378;2022-09-03T11:26:43;52290.06;;;-146.10;29.59
12763;BME280;6445;52.490;13.378;2022-09-03T11:34:49;52320.06;;;-146.10;29.67
12763;BME280;6445;52.490;13.378;2022-09-03T11:37:28;52308.06;;;-146.10;29.60
12763;BME280;6445;52.490;13.378;2022-09-03T11:40:15;52350.06;;;-146.10;29.62
12763;BME280;6445;52.490;13.378;2022-09-03T11:42:45;52280.03;;;-146.10;29.90
12763;BME280;6445;52.490;13.378;2022-09-03T11:45:21;52256.03;;;-146.10;30.16
12763;BME280;6445;52.490;13.378;2022-09-03T11:47:47;52236.03;;;-146.10;30.24
12763;BME280;6445;52.490;13.378;2022-09-03T11:50:30;52326.06;;;-146.10;29.39
12763;BME280;6445;52.490;13.378;2022-09-03T11:55:54;52312.06;;;-146.10;29.65
12763;BME280;6445;52.490;13.378;2022-09-03T11:58:25;52334.06;;;-146.10;29.63
12763;BME280;6445;52.490;13.378;2022-09-03T12:00:54;52346.06;;;-146.10;29.00
12763;BME280;6445;52.490;13.378;2022-09-03T12:03:42;52320.06;;;-146.10;28.96
12763;BME280;6445;52.490;13.378;2022-09-03T12:06:40;52294.06;;;-146.10;28.75
12763;BME280;6445;52.490;13.378;2022-09-03T12:11:57;52308.06;;;-146.10;28.81
12763;BME280;6445;52.490;13.378;2022-09-03T12:17:10;52342.06;;;-146.10;28.81
12763;BME280;6445;52.490;13.378;2022-09-03T12:19:45;52320.06;;;-146.10;28.17
12763;BME280;6445;52.490;13.378;2022-09-03T12:22:15;52338.06;;;-146.10;28.38
12763;BME280;6445;52.490;13.378;2022-09-03T12:24:42;52418.09;;;-146.10;28.08
12763;BME280;6445;52.490;13.378;2022-09-03T12:27:12;52426.09;;;-146.10;27.63
12763;BME280;6445;52.490;13.378;2022-09-03T12:29:49;52340.06;;;-146.10;27.95
12763;BME280;6445;52.490;13.378;2022-09-03T12:34:47;52332.06;;;-146.10;28.25
12763;BME280;6445;52.490;13.378;2022-09-03T12:37:21;52320.06;;;-146.10;28.33
12763;BME280;6445;52.490;13.378;2022-09-03T12:39:55;52366.06;;;-146.10;28.68
12763;BME280;6445;52.490;13.378;2022-09-03T12:42:29;52368.06;;;-146.10;28.26
12763;BME280;6445;52.490;13.378;2022-09-03T12:45:05;52354.06;;;-146.10;28.02
12763;BME280;6445;52.490;13.378;2022-09-03T12:47:38;52368.06;;;-146.10;28.02
12763;BME280;6445;52.490;13.378;2022-09-03T12:50:06;52320.06;;;-146.10;28.55
12763;BME280;6445;52.490;13.378;2022-09-03T12:52:39;52292.06;;;-146.10;28.92
12763;BME280;6445;52.490;13.378;2022-09-03T12:55:34;52300.06;;;-146.10;28.68
12763;BME280;6445;52.490;13.378;2022-09-03T13:00:45;52358.06;;;-146.10;28.15
12763;BME280;6445;52.490;13.378;2022-09-03T13:03:18;52334.06;;;-146.10;28.21
12763;BME280;6445;52.490;13.378;2022-09-03T13:05:50;52292.06;;;-146.10;28.23
12763;BME280;6445;52.490;13.378;2022-09-03T13:08:31;52302.06;;;-146.10;28.52
12763;BME280;6445;52.490;13.378;2022-09-03T13:11:00;52292.06;;;-146.10;28.54
12763;BME280;6445;52.490;13.378;2022-09-03T13:13:31;52304.06;;;-146.10;28.57
12763;BME280;6445;52.490;13.378;2022-09-03T13:16:23;52292.06;;;-146.10;28.83
12763;BME280;6445;52.490;13.378;2022-09-03T13:22:10;52280.03;;;-146.10;29.48
12763;BME280;6445;52.490;13.378;2022-09-03T13:25:02;52280.03;;;-146.10;29.46
12763;BME280;6445;52.490;13.378;2022-09-03T13:27:42;52286.03;;;-146.10;29.22
12763;BME280;6445;52.490;13.378;2022-09-03T13:30:13;52298.06;;;-146.10;29.60
12763;BME280;6445;52.490;13.378;2022-09-03T13:33:01;52264.03;;;-146.10;29.79
12763;BME280;6445;52.490;13.378;2022-09-03T13:38:23;52266.03;;;-146.10;29.99
12763;BME280;6445;52.490;13.378;2022-09-03T13:41:08;52250.03;;;-146.10;29.93
12763;BME280;6445;52.490;13.378;2022-09-03T13:46:27;52248.03;;;-146.10;30.09
12763;BME280;6445;52.490;13.378;2022-09-03T13:49:05;52274.03;;;-146.10;30.08
12763;BME280;6445;52.490;13.378;2022-09-03T13:51:57;52278.03;;;-146.10;29.97
12763;BME280;6445;52.490;13.378;2022-09-03T13:54:49;52300.06;;;-146.10;29.63
12763;BME280;6445;52.490;13.378;2022-09-03T13:57:33;52278.03;;;-146.10;29.76
12763;BME280;6445;52.490;13.378;2022-09-03T14:02:44;52290.06;;;-146.10;29.54
12763;BME280;6445;52.490;13.378;2022-09-03T14:05:22;52272.03;;;-146.10;30.00
12763;BME280;6445;52.490;13.378;2022-09-03T14:10:49;52258.03;;;-146.10;30.03
12763;BME280;6445;52.490;13.378;2022-09-03T14:13:27;52274.03;;;-146.10;29.82
12763;BME280;6445;52.490;13.378;2022-09-03T14:16:08;52286.03;;;-146.10;29.24
12763;BME280;6445;52.490;13.378;2022-09-03T14:18:57;52328.06;;;-146.10;29.43
12763;BME280;6445;52.490;13.378;2022-09-03T14:21:35;52290.06;;;-146.10;29.62
12763;BME280;6445;52.490;13.378;2022-09-03T14:24:15;52306.06;;;-146.10;29.35
12763;BME280;6445;52.490;13.378;2022-09-03T14:26:56;52312.06;;;-146.10;29.02